Airfield :
LOGIN :

Register | Disclaimer

   EN    FR    IT 

 










Legend :    VFR   Marginal VFR   IFR   Intensive IFR   Very Intensive IFR
Visi :
Ceiling :
>= 8 km
>= 3000ft
5 to 8 km
1000 to 3000 ft
1500m to 5 km
500 to 1000 ft
800 to 1500m
200 to 500 ft
< 800m
< 200 ft
Symbols :   Thunderstorms  Fog  Heavy snow  Heavy precipitations  Wind > 20 kt
SIGMETs :     Misc.  Thunderstorms  Icing  Turbulence  Mountain Waves  Volcanic Ashes







- Airport Elevation : 1197 ft
- IATA code : SPM


ETAD - Spangdahlem Ab

CURRENT METAR :
  • 250856Z AUTO 12004KT 9999 BKN200 27/18 A3010 RMK AO2 SLP165 T02680175 52008 $

EXPIRED METARs :
  • 250756Z AUTO 09005KT 9999 BKN200 25/17 A3010 RMK AO2 SLP165 T02530172 $
  • 250656Z AUTO 09007KT 9999 CLR 24/17 A3009 RMK AO2 SLP161 T02360169

TAF TAF ETAD
Valid from the 24 at 20:00 until the 26 at 02:00 UTC


241958Z 2420/2602 09010KT 9999 FEW050 QNH3038INS
BECMG 2421/2422 09010KT 8000 BR SKC QNH3035INS
BECMG 2502/2503 09008KT 8000 BR BKN160 621607 QNH3036INS
BECMG 2509/2510 18012G20KT 9999 NSW SKC QNH3047INS
BECMG 2516/2517 24008KT 9999 SKC QNH3048INS TX31/2514Z TN17/2504Z LAST NO AMDS AFT 2420 NEXT 2504
No reported NOTAMs for that airfield.



MET'MAP, your aeronautical weather chart ! - Copyright ORBIFLY December 2007 - Disclaimer

ORBIFLY MET'MAP TEAM :

Programming & Development : Alexandra Zaïnal
Concept & Development : Baudouin d'Aumeries
Co-Development & Prog : Marc-Olivier Méhu
Technical & hardware support : Manuel Goepfert

Contact : metmap@orbifly.com




SOURCES & CREDITS :

   NOAA